Bautista Pino — EASK — position and weather

sailwx.info

Track history (hours):
 
Tides and Currents Weather Stations Pressure Air Temp Water Temp Dewpoint Dewpoint Depression Visibility Wind Speed Wind Dir Waves Ship Positions

Bautista Pino

Last reported at 2016-Aug-26 00:33 UTC. Time now 2016-Aug-27 01:13 UTC.
Position N 43°46' W 007°23'.

Length 29 m; draft 3.5 m.

Type: Fishing. MMSI: 224181290.

Date/timePositionNaut miles runAvg speedWind from/ knotsBaromVisibWave heightAir tempDewpointWater temp
2016-Aug-26 00:33N 43°46' W 007°23'1 0.6
2016-Aug-25 23:33N 43°46' W 007°23'1 0.8
2016-Aug-25 22:32N 43°47' W 007°23'1 1.0
2016-Aug-25 21:32N 43°46' W 007°22'2 1.7
2016-Aug-25 20:18N 43°46' W 007°20'1 1.8
2016-Aug-25 19:28N 43°46' W 007°18'2 1.8
2016-Aug-25 18:31N 43°47' W 007°15'30 0.7
2016-Aug-23 23:14N 43°57' W 006°37'4 6.3
2016-Aug-23 22:33N 43°54' W 006°41'9 6.7
2016-Aug-23 21:16N 43°48' W 006°49'4 3.7
2016-Aug-23 20:14N 43°46' W 006°53'2 1.4
2016-Aug-23 19:06N 43°47' W 006°52'1 1.0
2016-Aug-23 18:32N 43°47' W 006°53'21 1.0
2016-Aug-22 21:09N 43°46' W 007°22'1 0.6
2016-Aug-22 19:23N 43°46' W 007°20'2 1.9
2016-Aug-22 18:33N 43°47' W 007°18'2 1.7
2016-Aug-22 17:33N 43°48' W 007°16'2 1.7
2016-Aug-22 16:32N 43°48' W 007°14'13 2.9
2016-Aug-22 12:09N 43°56' W 006°59'5 8.7
2016-Aug-22 11:34N 43°59' W 006°53'12 1.5
2016-Aug-22 03:08N 43°58' W 006°36'  
2016-Aug-17 19:04N 43°46' W 005°19'21 0.9
2016-Aug-16 20:26N 43°33' W 005°42'3 3.3
2016-Aug-16 19:33N 43°35' W 005°38'10 9.7
2016-Aug-16 18:33N 43°38' W 005°25'5 0.3
2016-Aug-16 02:30N 43°41' W 005°21'9 9.5
2016-Aug-16 01:32N 43°37' W 005°33'  
Track history (hours):
 
Tides and Currents Weather Stations Pressure Air Temp Water Temp Dewpoint Dewpoint Depression Visibility Wind Speed Wind Dir Waves Ship Positions

Bautista Pino

Last reported at 2016-Aug-26 00:33 UTC. Time now 2016-Aug-27 01:13 UTC.
Position N 43°46' W 007°23'.

Length 29 m; draft 3.5 m.

Type: Fishing. MMSI: 224181290.

Date/timePositionNaut miles runAvg speedWind from/ knotsBaromVisibWave heightAir tempDewpointWater temp
2016-Aug-26 00:33N 43°46' W 007°23'1 0.6
2016-Aug-25 23:33N 43°46' W 007°23'1 0.8
2016-Aug-25 22:32N 43°47' W 007°23'1 1.0
2016-Aug-25 21:32N 43°46' W 007°22'2 1.7
2016-Aug-25 20:18N 43°46' W 007°20'1 1.8
2016-Aug-25 19:28N 43°46' W 007°18'2 1.8
2016-Aug-25 18:31N 43°47' W 007°15'30 0.7
2016-Aug-23 23:14N 43°57' W 006°37'4 6.3
2016-Aug-23 22:33N 43°54' W 006°41'9 6.7
2016-Aug-23 21:16N 43°48' W 006°49'4 3.7
2016-Aug-23 20:14N 43°46' W 006°53'2 1.4
2016-Aug-23 19:06N 43°47' W 006°52'1 1.0
2016-Aug-23 18:32N 43°47' W 006°53'21 1.0
2016-Aug-22 21:09N 43°46' W 007°22'1 0.6
2016-Aug-22 19:23N 43°46' W 007°20'2 1.9
2016-Aug-22 18:33N 43°47' W 007°18'2 1.7
2016-Aug-22 17:33N 43°48' W 007°16'2 1.7
2016-Aug-22 16:32N 43°48' W 007°14'13 2.9
2016-Aug-22 12:09N 43°56' W 006°59'5 8.7
2016-Aug-22 11:34N 43°59' W 006°53'12 1.5
2016-Aug-22 03:08N 43°58' W 006°36'  
2016-Aug-17 19:04N 43°46' W 005°19'21 0.9
2016-Aug-16 20:26N 43°33' W 005°42'3 3.3
2016-Aug-16 19:33N 43°35' W 005°38'10 9.7
2016-Aug-16 18:33N 43°38' W 005°25'5 0.3
2016-Aug-16 02:30N 43°41' W 005°21'9 9.5
2016-Aug-16 01:32N 43°37' W 005°33'  

Dump ship's entire track history